Decoded Metar for LEDA (LLEIDA in SPAIN) (IATA:ILD) | Meteo·Mobile Aviation Weather
aviador You're here:

LEDA Decoded Metar

LLEIDA in SPAIN
Report Time2019-02-23 08:30:00
UTC Time2019-02-23 09:03:18
Flight Rules vfr VFR
Wind060° at 04 kt
W.Decomp.*RWY 13: 1.4 kt HW 3.8 kt LCW
W.Rank060° ranks 16
Current wind is below 060° avg. (6.5)
Visibility9999 m
Phenomena:N/A
Clouds:N/A
Expected CloudBase > 1,600 ft AGL from Temp-Dew spread
CeilingNone
Temp08°C (ISA -5)
Dew Point04°C (76% RH)
AAT5.2°C
QNH1028 hPa
Density Alt197 ft
Elevation1,152 ft
Report Wrong Elevation
Raw Report
LEDA 230830Z 06004KT 030V090 CAVOK 08/04 Q1028=

Extra information for LEDA:More info

Metar Taf Metar & Taf Last 4 Metars F.Rules Stats Wind Profile Meteogram Temp Stats Airport Information Weather charts Add Link Nearby VenuesMetar ALERT Operation Metar Decoded Social comments